Accueil
METAR-TAF:

METAR-TAF

Aéroports :

Aéroport de Magenta

Nouméa, Nouvelle-Calédonie

latitude: 22-15-30S, longitude: 166-28-22E, altitude: 3 m

METAR: absent

Heure: 17:30 (06:30 UTC)

Prévision

Le bulletin a été fait il y a 13 heures et 30 minutes, à 17:00 UTC
Prévision valable du 19 à 18 UTC au 20 à 18 UTC
Vent 4 kt de est
Visibilité 10 km ou plus
Nuages épars à une hauteur de 3500 ft
Nuages fragmentés à une hauteur de 9000 ft
Temporairement
du 19 à 18 UTC au 19 à 24 UTC
pluie
Evoluant progressivement
du 20 à 02 UTC au 20 à 04 UTC
Vent 15 kt de ouest
Temporairement
du 20 à 00 UTC au 20 à 07 UTC
Visibilité: 3500 m
Nuages fragmentés à une hauteur de 1200 ft
Nuages épars à une hauteur de 2000 ft, Cumulus congestus.
averses de pluie

TAF: NWWM 191700Z 1918/2018 10004KT 9999 SCT035 BKN090 TEMPO 1918/1924 RA BECMG 2002/2004 28015KT TEMPO 2000/2007 3500 SHRA BKN012 SCT020TCU

Observations et prévisions météorologiques de plus de 4000 aéroports (messages METAR et TAF).

Les stations disponibles sont représentées par des disques jaunes et rouges sur la carte.

Passer la souris dessus pour voir le nom de la station.

Cliquer dessus pour voir les observations et prévisions météorologiques.

Pour changer de carte: cliquez sur les boutons verts avec une croix noire pour zoomer, sur le bouton vert avec un tiret pour effectuer un zoom arrière, ou sur les flèches vertes pour les cartes adjacentes.


METAR-TAF: